Archival Weather

General Ignacio P Garcia Intl

General Ignacio P Garcia Intl, Mexico (MMHO)

Report from: Wednesday, December 6, 2023 6:40 AM CST
Current time: Wednesday, May 29, 2024 3:49 AM CST

Current weather – Weather history – Daily summaries
Weather forecast

Temperature12.0°C (53.6°F)
Dew point-2.0°C (28.4°F)
Winds Calm
Visibility10 mi. (16.1 km)
Clouds Sky clear
Altimeter30.04 in.Hg (1017 mB)
Relative humidity38 %
Density altitude-409 ft. (-125 m)
Flight conditions Visual Meteorological Conditions
Raw dataMMHO 061240Z 00000KT 10SM SKC 12/M02 A3004 RMK ISOL CI HZY
An error has occurred. This application may no longer respond until reloaded. Reload 🗙